Time,TemperatureF,DewpointF,PressureIn,WindDirection,WindDirectionDegrees,WindSpeedMPH,WindSpeedGustMPH,Humidity,HourlyPrecipIn,Conditions,Clouds,dailyrainin,SolarRadiationWatts/m^2,SoftwareType,DateUTC
2013-03-08 00:00:00,20.0,18.0,-100.00,SW,225,0.0,-999.0,91,-99.99,,,-99.99,0.000000,,2013-03-08 05:00:00,
2013-03-08 00:42:00,20.0,18.0,-100.00,SW,225,0.0,-999.0,91,-99.99,,,-99.99,0.000000,,2013-03-08 05:42:00,
2013-03-08 00:52:00,20.0,18.0,-100.00,SW,225,0.0,-999.0,91,-99.99,,,-99.99,0.000000,,2013-03-08 05:52:00,
2013-03-08 01:00:00,19.0,18.0,-100.00,SW,225,0.0,-999.0,93,-99.99,,,-99.99,0.000000,,2013-03-08 06:00:00,
2013-03-08 01:32:00,19.0,18.0,-100.00,SW,225,0.0,-999.0,93,-99.99,,,-99.99,0.000000,,2013-03-08 06:32:00,
2013-03-08 01:42:00,19.0,18.0,-100.00,SW,225,0.0,-999.0,93,-99.99,,,-99.99,0.000000,,2013-03-08 06:42:00,
2013-03-08 01:52:00,19.0,18.0,-100.00,SW,225,0.0,-999.0,93,-99.99,,,-99.99,0.000000,,2013-03-08 06:52:00,
2013-03-08 02:00:00,18.0,17.0,-100.00,SW,225,0.0,-999.0,94,-99.99,,,-99.99,0.000000,,2013-03-08 07:00:00,
2013-03-08 02:32:00,18.0,17.0,-100.00,SW,225,0.0,-999.0,94,-99.99,,,-99.99,0.000000,,2013-03-08 07:32:00,
2013-03-08 02:42:00,18.0,17.0,-100.00,SW,225,0.0,-999.0,94,-99.99,,,-99.99,0.000000,,2013-03-08 07:42:00,
2013-03-08 02:52:00,18.0,17.0,-100.00,SW,225,0.0,-999.0,94,-99.99,,,-99.99,0.000000,,2013-03-08 07:52:00,
2013-03-08 03:00:00,17.0,15.0,-100.00,SW,225,0.0,-999.0,93,-99.99,,,-99.99,0.000000,,2013-03-08 08:00:00,
2013-03-08 03:42:00,17.0,15.0,-100.00,SW,225,0.0,-999.0,93,-99.99,,,-99.99,0.000000,,2013-03-08 08:42:00,
2013-03-08 03:52:00,17.0,15.0,-100.00,SW,225,0.0,-999.0,93,-99.99,,,-99.99,0.000000,,2013-03-08 08:52:00,
2013-03-08 04:00:00,17.0,15.0,-100.00,SW,225,0.0,-999.0,93,-99.99,,,-99.99,0.000000,,2013-03-08 09:00:00,
2013-03-08 04:42:00,17.0,15.0,-100.00,SW,225,0.0,-999.0,93,-99.99,,,-99.99,0.000000,,2013-03-08 09:42:00,
2013-03-08 04:52:00,17.0,15.0,-100.00,SW,225,0.0,-999.0,93,-99.99,,,-99.99,0.000000,,2013-03-08 09:52:00,
2013-03-08 05:00:00,15.0,13.0,-100.00,SW,225,0.0,-999.0,91,-99.99,,,-99.99,0.000000,,2013-03-08 10:00:00,
2013-03-08 05:42:00,15.0,13.0,-100.00,SW,225,0.0,-999.0,91,-99.99,,,-99.99,0.000000,,2013-03-08 10:42:00,
2013-03-08 05:52:00,15.0,13.0,-100.00,SW,225,0.0,-999.0,91,-99.99,,,-99.99,0.000000,,2013-03-08 10:52:00,
2013-03-08 06:00:00,14.0,12.0,-100.00,SW,225,0.0,-999.0,91,-99.99,,,-99.99,0.000000,,2013-03-08 11:00:00,
2013-03-08 06:42:00,14.0,12.0,-100.00,SW,225,0.0,-999.0,91,-99.99,,,-99.99,0.000000,,2013-03-08 11:42:00,
2013-03-08 06:52:00,14.0,12.0,-100.00,SW,225,0.0,-999.0,91,-99.99,,,-99.99,0.000000,,2013-03-08 11:52:00,
2013-03-08 07:00:00,15.0,13.0,-100.00,SW,225,0.0,-999.0,92,-99.99,,,-99.99,0.000000,,2013-03-08 12:00:00,
2013-03-08 07:43:00,15.0,13.0,-100.00,SW,225,0.0,-999.0,92,-99.99,,,-99.99,0.000000,,2013-03-08 12:43:00,
2013-03-08 07:53:00,15.0,13.0,-100.00,SW,225,0.0,-999.0,92,-99.99,,,-99.99,0.000000,,2013-03-08 12:53:00,
2013-03-08 08:00:00,16.0,14.0,-100.00,SW,225,0.0,-999.0,92,-99.99,,,-99.99,20.879999,,2013-03-08 13:00:00,
2013-03-08 08:42:00,16.0,14.0,-100.00,SW,225,0.0,-999.0,92,-99.99,,,-99.99,20.879999,,2013-03-08 13:42:00,
2013-03-08 08:52:00,16.0,14.0,-100.00,SW,225,0.0,-999.0,92,-99.99,,,-99.99,20.879999,,2013-03-08 13:52:00,
2013-03-08 09:00:00,23.0,18.0,-100.00,SSW,202,0.0,-999.0,82,-99.99,,,-99.99,150.800003,,2013-03-08 14:00:00,
2013-03-08 09:42:00,23.0,18.0,-100.00,SSW,202,0.0,-999.0,82,-99.99,,,-99.99,150.800003,,2013-03-08 14:42:00,
2013-03-08 09:52:00,23.0,18.0,-100.00,SSW,202,0.0,-999.0,82,-99.99,,,-99.99,150.800003,,2013-03-08 14:52:00,
2013-03-08 10:00:00,28.0,19.0,-100.00,SSW,202,2.0,-999.0,68,-99.99,,,-99.99,293.480011,,2013-03-08 15:00:00,
2013-03-08 10:43:00,28.0,19.0,-100.00,SSW,202,2.0,-999.0,68,-99.99,,,-99.99,293.480011,,2013-03-08 15:43:00,
2013-03-08 10:53:00,28.0,19.0,-100.00,SSW,202,2.0,-999.0,68,-99.99,,,-99.99,293.480011,,2013-03-08 15:53:00,
2013-03-08 11:00:00,31.0,20.0,-100.00,South,180,2.0,-999.0,61,-99.99,,,-99.99,430.359985,,2013-03-08 16:00:00,
2013-03-08 11:42:00,31.0,20.0,-100.00,South,180,2.0,-999.0,61,-99.99,,,-99.99,430.359985,,2013-03-08 16:42:00,
2013-03-08 11:52:00,31.0,20.0,-100.00,South,180,2.0,-999.0,61,-99.99,,,-99.99,430.359985,,2013-03-08 16:52:00,
2013-03-08 12:00:00,35.0,21.0,-100.00,South,180,1.0,-999.0,56,-99.99,,,-99.99,526.640015,,2013-03-08 17:00:00,
2013-03-08 12:42:00,35.0,21.0,-100.00,South,180,1.0,-999.0,56,-99.99,,,-99.99,526.640015,,2013-03-08 17:42:00,
2013-03-08 12:52:00,35.0,21.0,-100.00,South,180,1.0,-999.0,56,-99.99,,,-99.99,526.640015,,2013-03-08 17:52:00,
2013-03-08 13:00:00,37.0,22.0,-100.00,South,180,1.0,-999.0,53,-99.99,,,-99.99,575.359985,,2013-03-08 18:00:00,
2013-03-08 13:42:00,37.0,22.0,-100.00,South,180,1.0,-999.0,53,-99.99,,,-99.99,575.359985,,2013-03-08 18:42:00,
2013-03-08 13:52:00,37.0,22.0,-100.00,South,180,1.0,-999.0,53,-99.99,,,-99.99,575.359985,,2013-03-08 18:52:00,
2013-03-08 14:00:00,38.0,23.0,-100.00,South,180,2.0,-999.0,54,-99.99,,,-99.99,577.679993,,2013-03-08 19:00:00,
2013-03-08 14:42:00,38.0,23.0,-100.00,South,180,2.0,-999.0,54,-99.99,,,-99.99,577.679993,,2013-03-08 19:42:00,
2013-03-08 14:52:00,38.0,23.0,-100.00,South,180,2.0,-999.0,54,-99.99,,,-99.99,577.679993,,2013-03-08 19:52:00,
2013-03-08 15:00:00,38.0,22.0,-100.00,South,180,4.0,-999.0,53,-99.99,,,-99.99,516.200012,,2013-03-08 20:00:00,
2013-03-08 15:42:00,38.0,22.0,-100.00,South,180,4.0,-999.0,53,-99.99,,,-99.99,516.200012,,2013-03-08 20:42:00,
2013-03-08 15:53:00,38.0,22.0,-100.00,South,180,4.0,-999.0,53,-99.99,,,-99.99,516.200012,,2013-03-08 20:53:00,
2013-03-08 16:00:00,37.0,23.0,-100.00,SSW,202,4.0,-999.0,56,-99.99,,,-99.99,433.839996,,2013-03-08 21:00:00,
2013-03-08 16:33:00,37.0,23.0,-100.00,SSW,202,4.0,-999.0,56,-99.99,,,-99.99,433.839996,,2013-03-08 21:33:00,
2013-03-08 16:42:00,37.0,23.0,-100.00,SSW,202,4.0,-999.0,56,-99.99,,,-99.99,433.839996,,2013-03-08 21:42:00,
2013-03-08 16:52:00,37.0,23.0,-100.00,SSW,202,4.0,-999.0,56,-99.99,,,-99.99,433.839996,,2013-03-08 21:52:00,
2013-03-08 17:00:00,37.0,23.0,-100.00,South,180,3.0,-999.0,56,-99.99,,,-99.99,303.920013,,2013-03-08 22:00:00,
2013-03-08 17:42:00,37.0,23.0,-100.00,South,180,3.0,-999.0,56,-99.99,,,-99.99,303.920013,,2013-03-08 22:42:00,
2013-03-08 17:53:00,37.0,23.0,-100.00,South,180,3.0,-999.0,56,-99.99,,,-99.99,303.920013,,2013-03-08 22:53:00,
2013-03-08 18:00:00,37.0,24.0,-100.00,South,180,1.0,-999.0,57,-99.99,,,-99.99,156.600006,,2013-03-08 23:00:00,
2013-03-08 18:42:00,37.0,24.0,-100.00,South,180,1.0,-999.0,57,-99.99,,,-99.99,156.600006,,2013-03-08 23:42:00,
2013-03-08 18:53:00,37.0,24.0,-100.00,South,180,1.0,-999.0,57,-99.99,,,-99.99,156.600006,,2013-03-08 23:53:00,
2013-03-08 19:00:00,34.0,24.0,-100.00,South,180,1.0,-999.0,66,-99.99,,,-99.99,18.559999,,2013-03-09 00:00:00,
2013-03-08 19:42:00,34.0,24.0,-100.00,South,180,1.0,-999.0,66,-99.99,,,-99.99,18.559999,,2013-03-09 00:42:00,
2013-03-08 19:52:00,34.0,24.0,-100.00,South,180,1.0,-999.0,66,-99.99,,,-99.99,18.559999,,2013-03-09 00:52:00,
2013-03-08 22:00:00,27.0,24.0,-100.00,South,180,0.0,-999.0,88,-99.99,,,-99.99,0.000000,,2013-03-09 03:00:00,
2013-03-08 22:42:00,27.0,24.0,-100.00,South,180,0.0,-999.0,88,-99.99,,,-99.99,0.000000,,2013-03-09 03:42:00,
2013-03-08 22:52:00,27.0,24.0,-100.00,South,180,0.0,-999.0,88,-99.99,,,-99.99,0.000000,,2013-03-09 03:52:00,
2013-03-08 23:00:00,25.0,23.0,-100.00,South,180,0.0,-999.0,92,-99.99,,,-99.99,0.000000,,2013-03-09 04:00:00,
2013-03-08 23:42:00,25.0,23.0,-100.00,South,180,0.0,-999.0,92,-99.99,,,-99.99,0.000000,,2013-03-09 04:42:00,
2013-03-08 23:52:00,25.0,23.0,-100.00,South,180,0.0,-999.0,92,-99.99,,,-99.99,0.000000,,2013-03-09 04:52:00,